Hiddenite, North Carolina
Current Conditions -  °F | °C
As of 9:15 AM on Tuesday 27 Jan 2015 (Local Time) from KSVH Reporting Station
Overcast Overcast  
Wind Chill: 32°   Ceiling: 9000
Heat Index: 32°   Visibility: 10mi
Dew Point: 19°   Wind: 0mph
Humidity: 59%   Direction: NA
Pressure: 29.83"   Gusts: NA
Location:  35.9°N, 81.09°W
Report Text: KSVH 271415Z AUTO 00000KT 10SM OVC090 00/M07 A2983 RMK AO2 T00001071
Loading
Personal Weather Stations






























Interactive Weather Map New forecast layout! Learn more

10-Day Weather Forecast

Advertisements
Track Severe Weather on mobile